Time;durP1;ratioP1;P1;durP2;ratioP2;P2;SDS_P1;SDS_P2;PMS_P1;PMS_P2;Temp;Humidity;BMP_temperature;BMP_pressure;BME280_temperature;BME280_humidity;BME280_pressure;Samples;Min_cycle;Max_cycle;Signal;HPM_P1;HPM_P2
2022/08/08 00:02:51;;;;;;;6.95;3.45;;;13.10;99.90;;;;;;5032713;28;20099;-67
2022/08/08 00:05:35;;;;;;;8.35;4.15;;;13.30;99.90;;;;;;5036251;28;20041;-67
2022/08/08 00:08:25;;;;;;;5.50;3.97;;;13.40;99.90;;;;;;5050996;28;20080;-67
2022/08/08 00:10:59;;;;;;;4.50;2.58;;;13.30;99.90;;;;;;5032959;28;20049;-67
2022/08/08 00:13:37;;;;;;;5.43;3.35;;;13.10;99.90;;;;;;5037990;28;20039;-67
2022/08/08 00:16:10;;;;;;;3.70;2.72;;;12.90;99.90;;;;;;5054037;28;20045;-67
2022/08/08 00:18:53;;;;;;;3.95;2.47;;;12.90;99.90;;;;;;5032759;28;20142;-67
2022/08/08 00:21:24;;;;;;;5.57;2.78;;;13.00;99.90;;;;;;5046846;28;20037;-67
2022/08/08 00:24:01;;;;;;;3.45;3.00;;;13.10;99.90;;;;;;5045518;28;20404;-67
2022/08/08 00:26:34;;;;;;;3.83;3.28;;;13.10;99.90;;;;;;5034055;28;20048;-67
2022/08/08 00:29:07;;;;;;;5.35;3.75;;;12.80;99.90;;;;;;5032464;28;20125;-67
2022/08/08 00:31:39;;;;;;;3.05;2.65;;;13.20;99.90;;;;;;5033756;28;20042;-67
2022/08/08 00:37:43;;;;;;;4.07;3.67;;;12.80;99.90;;;;;;5039955;28;20044;-67
2022/08/08 00:40:34;;;;;;;6.43;3.80;;;12.80;99.90;;;;;;5050931;28;20495;-67
2022/08/08 00:43:30;;;;;;;5.63;3.70;;;12.90;99.90;;;;;;5032522;28;20394;-67
2022/08/08 00:46:33;;;;;;;5.95;3.08;;;12.90;99.90;;;;;;5036915;28;20390;-66
2022/08/08 00:49:35;;;;;;;3.08;2.60;;;13.00;99.90;;;;;;5048367;28;20098;-67
2022/08/08 00:52:22;;;;;;;3.05;2.75;;;13.00;99.90;;;;;;5062690;28;20051;-67
2022/08/08 00:55:32;;;;;;;2.95;2.35;;;12.80;99.90;;;;;;5043583;28;20051;-66
2022/08/08 00:58:41;;;;;;;3.50;2.47;;;12.80;99.90;;;;;;5062506;28;20478;-67
2022/08/08 01:01:13;;;;;;;3.03;2.38;;;12.90;99.90;;;;;;5044513;28;20070;-66
2022/08/08 01:03:57;;;;;;;2.17;1.70;;;12.90;99.90;;;;;;5071805;28;20040;-67
2022/08/08 01:07:02;;;;;;;4.00;2.63;;;12.80;99.90;;;;;;5073023;28;20070;-67
2022/08/08 01:09:58;;;;;;;4.80;2.63;;;12.70;99.90;;;;;;5034390;28;20103;-66
2022/08/08 01:12:44;;;;;;;3.80;2.65;;;12.60;99.90;;;;;;5066368;28;20044;-66
2022/08/08 01:15:38;;;;;;;3.33;2.40;;;12.70;99.90;;;;;;5072209;28;20064;-67
2022/08/08 01:18:26;;;;;;;3.33;3.03;;;12.80;99.90;;;;;;5072607;28;20040;-67
2022/08/08 01:21:08;;;;;;;5.75;3.30;;;12.70;99.90;;;;;;5071524;28;20063;-67
2022/08/08 01:23:39;;;;;;;3.80;2.70;;;12.70;99.90;;;;;;5046295;28;20033;-67
2022/08/08 01:26:55;;;;;;;4.63;2.97;;;12.60;99.90;;;;;;5054414;28;20506;-66
2022/08/08 01:29:47;;;;;;;4.68;2.65;;;12.60;99.90;;;;;;5063434;28;20066;-66
2022/08/08 01:32:33;;;;;;;4.53;1.70;;;12.40;99.90;;;;;;5042334;28;20124;-67
2022/08/08 01:35:15;;;;;;;3.75;1.67;;;12.40;99.90;;;;;;5071177;28;20106;-67
2022/08/08 01:38:12;;;;;;;5.25;1.77;;;12.50;99.90;;;;;;5071551;28;20427;-66
2022/08/08 01:41:06;;;;;;;2.58;1.88;;;12.20;99.90;;;;;;5071249;28;20494;-66
2022/08/08 01:43:57;;;;;;;3.15;1.95;;;12.40;99.90;;;;;;5071281;28;20441;-66
2022/08/08 01:46:39;;;;;;;2.55;1.23;;;12.30;99.90;;;;;;5045755;28;20040;-67
2022/08/08 01:49:17;;;;;;;1.92;1.70;;;12.40;99.90;;;;;;5072536;28;20072;-66
2022/08/08 01:52:07;;;;;;;4.13;2.58;;;12.10;99.90;;;;;;5072332;28;20107;-66
2022/08/08 01:54:34;;;;;;;2.78;2.05;;;;;;;;;;5072829;28;20048;-66
2022/08/08 01:56:59;;;;;;;3.10;2.58;;;12.20;99.90;;;;;;5071206;28;20206;-67
2022/08/08 01:59:36;;;;;;;5.25;2.63;;;11.90;99.90;;;;;;5070481;28;20041;-66
2022/08/08 02:02:26;;;;;;;6.18;3.40;;;11.90;99.90;;;;;;5070948;28;20456;-66
2022/08/08 02:05:02;;;;;;;7.15;3.85;;;12.20;99.90;;;;;;5071290;28;20050;-66
2022/08/08 02:07:48;;;;;;;4.30;3.00;;;12.10;99.90;;;;;;5072073;28;20040;-66
2022/08/08 02:10:35;;;;;;;39.40;2.88;;;12.10;99.90;;;;;;5070857;28;20045;-66
2022/08/08 02:13:09;;;;;;;2.00;1.58;;;12.10;99.90;;;;;;5070846;28;20135;-66
2022/08/08 02:15:39;;;;;;;2.67;2.17;;;12.00;99.90;;;;;;5057871;28;20368;-66
2022/08/08 02:18:20;;;;;;;6.93;3.75;;;12.10;99.90;;;;;;5072244;28;20037;-66
2022/08/08 02:23:48;;;;;;;5.00;3.55;;;12.10;99.90;;;;;;5071181;28;20044;-66
2022/08/08 02:26:32;;;;;;;5.82;3.38;;;12.30;99.90;;;;;;5070580;28;20229;-66
2022/08/08 02:29:25;;;;;;;7.45;4.15;;;12.20;99.90;;;;;;5071907;28;20044;-66
2022/08/08 02:32:15;;;;;;;4.03;3.28;;;12.10;99.90;;;;;;5054093;28;20044;-66
2022/08/08 02:34:47;;;;;;;4.65;3.67;;;12.10;99.90;;;;;;5040010;28;20098;-66
2022/08/08 02:37:29;;;;;;;6.45;3.53;;;12.00;99.90;;;;;;5071921;28;20046;-66
2022/08/08 02:40:13;;;;;;;5.22;3.35;;;12.20;99.90;;;;;;5043780;28;20044;-66
2022/08/08 02:43:08;;;;;;;5.22;3.22;;;12.00;99.90;;;;;;5070494;28;20056;-66
2022/08/08 02:46:02;;;;;;;6.15;3.42;;;12.10;99.90;;;;;;5059722;28;20509;-66
2022/08/08 02:48:31;;;;;;;5.03;2.72;;;11.90;99.90;;;;;;5043507;28;20060;-66
2022/08/08 02:51:23;;;;;;;3.83;2.80;;;12.00;99.90;;;;;;5053730;28;20119;-66
2022/08/08 02:54:30;;;;;;;3.85;3.30;;;11.80;99.90;;;;;;5047288;28;20043;-66
2022/08/08 02:56:58;;;;;;;3.75;2.85;;;11.80;99.90;;;;;;5064768;28;20049;-66
2022/08/08 02:59:58;;;;;;;2.78;2.40;;;11.80;99.90;;;;;;5061688;28;20156;-66
2022/08/08 03:02:33;;;;;;;5.05;3.28;;;11.70;99.90;;;;;;5070478;28;20124;-66
2022/08/08 03:05:32;;;;;;;4.90;2.97;;;11.60;99.90;;;;;;5070505;28;20475;-66
2022/08/08 03:08:15;;;;;;;3.53;2.65;;;11.80;99.90;;;;;;5070528;28;20033;-66
2022/08/08 03:10:41;;;;;;;4.32;3.20;;;;;;;;;;5039942;28;20135;-66
2022/08/08 03:13:28;;;;;;;3.65;2.95;;;11.70;99.90;;;;;;5065866;28;20072;-66
2022/08/08 03:16:22;;;;;;;4.93;3.33;;;11.70;99.90;;;;;;5067947;28;20048;-66
2022/08/08 03:19:26;;;;;;;8.45;2.85;;;11.70;99.90;;;;;;5068198;28;20072;-67
2022/08/08 03:21:51;;;;;;;4.50;3.30;;;11.60;99.90;;;;;;5049345;28;20048;-66
2022/08/08 03:24:18;;;;;;;5.68;3.10;;;11.70;99.90;;;;;;5072230;28;20422;-66
2022/08/08 03:26:48;;;;;;;3.85;2.88;;;;;;;;;;5074902;28;20486;-66
2022/08/08 03:29:20;;;;;;;5.72;3.55;;;11.40;99.90;;;;;;5060955;28;20053;-66
2022/08/08 03:34:34;;;;;;;2.92;2.63;;;11.30;99.90;;;;;;5074778;28;20124;-66
2022/08/08 03:36:59;;;;;;;2.67;2.33;;;11.50;99.90;;;;;;5074715;28;20398;-66
2022/08/08 03:39:25;;;;;;;3.20;2.60;;;;;;;;;;5059186;28;20036;-66
2022/08/08 03:41:51;;;;;;;2.53;2.10;;;11.50;99.90;;;;;;5074772;28;20036;-67
2022/08/08 03:44:17;;;;;;;3.33;2.30;;;11.60;99.90;;;;;;5074829;28;20107;-66
2022/08/08 03:46:44;;;;;;;2.88;2.03;;;11.50;99.90;;;;;;5067365;28;20047;-66
2022/08/08 03:49:17;;;;;;;3.70;2.70;;;11.60;99.90;;;;;;5074853;28;20044;-66
2022/08/08 03:51:44;;;;;;;5.95;3.53;;;11.70;99.90;;;;;;5060132;28;20051;-66
2022/08/08 03:54:09;;;;;;;3.88;3.20;;;11.80;99.90;;;;;;5074632;28;20047;-66
2022/08/08 03:56:35;;;;;;;5.03;3.20;;;11.70;99.90;;;;;;5074292;28;20032;-66
2022/08/08 03:59:01;;;;;;;5.22;3.35;;;;;;;;;;5067457;28;20053;-66
2022/08/08 04:01:34;;;;;;;6.53;3.55;;;11.80;99.90;;;;;;5064582;28;20043;-66
2022/08/08 04:04:00;;;;;;;8.68;3.55;;;11.70;99.90;;;;;;5074154;28;20072;-66
2022/08/08 04:06:25;;;;;;;6.95;4.32;;;11.70;99.90;;;;;;5063713;28;20076;-66
2022/08/08 04:08:51;;;;;;;3.92;3.50;;;11.80;99.90;;;;;;5070383;28;20040;-66
2022/08/08 04:11:17;;;;;;;4.80;3.70;;;11.80;99.90;;;;;;5072750;28;20043;-66
2022/08/08 04:13:43;;;;;;;4.43;3.40;;;;;;;;;;5074096;28;20066;-66
2022/08/08 04:16:08;;;;;;;4.50;3.33;;;11.70;99.90;;;;;;5072728;28;20040;-66
2022/08/08 04:18:34;;;;;;;4.05;3.50;;;11.60;99.90;;;;;;5072721;28;20488;-66
2022/08/08 04:20:59;;;;;;;4.28;3.42;;;11.70;99.90;;;;;;5059679;28;20035;-66
2022/08/08 04:23:25;;;;;;;4.32;3.92;;;11.60;99.90;;;;;;5072425;28;20041;-66
2022/08/08 04:25:50;;;;;;;4.22;3.25;;;11.50;99.90;;;;;;5073749;28;20105;-66
2022/08/08 04:28:16;;;;;;;6.05;3.35;;;11.80;99.90;;;;;;5073028;28;20363;-66
2022/08/08 04:30:42;;;;;;;6.25;3.13;;;;;;;;;;5055734;28;20482;-67
2022/08/08 04:33:07;;;;;;;4.88;3.92;;;11.90;99.90;;;;;;5059652;28;20031;-66
2022/08/08 04:35:33;;;;;;;3.83;3.28;;;;;;;;;;5072327;28;20397;-67
2022/08/08 04:37:59;;;;;;;7.70;4.03;;;12.00;99.90;;;;;;5072052;28;20055;-66
2022/08/08 04:40:25;;;;;;;5.88;3.60;;;12.20;99.90;;;;;;5055718;28;20055;-66
2022/08/08 04:42:51;;;;;;;5.50;3.63;;;12.20;99.90;;;;;;5073778;28;20040;-66
2022/08/08 04:45:16;;;;;;;3.75;3.35;;;12.30;99.90;;;;;;5073188;28;20033;-66
2022/08/08 04:47:42;;;;;;;3.50;3.08;;;;;;;;;;5067351;28;20070;-66
2022/08/08 04:50:08;;;;;;;4.85;3.00;;;;;;;;;;5073290;28;20508;-66
2022/08/08 04:52:34;;;;;;;4.32;3.05;;;12.20;99.90;;;;;;5073021;28;20086;-66
2022/08/08 04:54:59;;;;;;;4.57;3.25;;;12.30;99.90;;;;;;5071902;28;20036;-66
2022/08/08 04:57:25;;;;;;;4.05;3.58;;;12.30;99.90;;;;;;5071817;28;20068;-66
2022/08/08 04:59:50;;;;;;;6.05;3.70;;;12.30;99.90;;;;;;5060963;28;20057;-66
2022/08/08 05:02:16;;;;;;;7.47;2.83;;;12.40;99.90;;;;;;5071001;28;20032;-66
2022/08/08 05:04:42;;;;;;;3.42;3.10;;;12.30;99.90;;;;;;5045121;28;20036;-66
2022/08/08 05:07:08;;;;;;;6.20;3.20;;;12.50;99.90;;;;;;5065482;28;20057;-66
2022/08/08 05:09:34;;;;;;;6.40;2.80;;;12.40;99.90;;;;;;5059850;28;20047;-66
2022/08/08 05:12:02;;;;;;;6.40;3.40;;;;;;;;;;5071426;28;20040;-66
2022/08/08 05:14:27;;;;;;;7.32;3.45;;;12.40;99.90;;;;;;5073254;28;20419;-66
2022/08/08 05:16:53;;;;;;;3.78;3.25;;;12.60;99.90;;;;;;5060751;28;20033;-66
2022/08/08 05:19:19;;;;;;;5.38;3.20;;;12.70;99.90;;;;;;5065359;28;20033;-66
2022/08/08 05:21:44;;;;;;;6.90;3.85;;;12.80;99.90;;;;;;5063152;28;20072;-66
2022/08/08 05:24:10;;;;;;;5.15;3.25;;;12.90;99.90;;;;;;5071210;28;20098;-66
2022/08/08 05:26:38;;;;;;;10.27;3.47;;;13.00;99.90;;;;;;5072878;28;20138;-66
2022/08/08 05:29:07;;;;;;;5.35;3.67;;;13.00;99.90;;;;;;5072916;28;20037;-66
2022/08/08 05:31:34;;;;;;;6.63;4.43;;;13.10;99.90;;;;;;5072740;28;20437;-66
2022/08/08 05:34:05;;;;;;;4.93;4.07;;;13.30;99.90;;;;;;5070757;28;20090;-66
2022/08/08 05:36:33;;;;;;;6.15;4.43;;;13.30;99.90;;;;;;5044592;28;20051;-66
2022/08/08 05:39:02;;;;;;;5.25;4.10;;;13.50;99.90;;;;;;5072589;28;20072;-66
2022/08/08 05:41:28;;;;;;;10.18;4.68;;;13.60;99.90;;;;;;5067542;28;20525;-66
2022/08/08 05:44:08;;;;;;;6.15;3.92;;;13.70;99.90;;;;;;5063613;28;20072;-66
2022/08/08 05:46:35;;;;;;;6.80;4.05;;;14.10;99.90;;;;;;5065645;28;20029;-66
2022/08/08 05:49:02;;;;;;;5.97;3.70;;;14.60;99.90;;;;;;5070938;28;20410;-66
2022/08/08 05:51:28;;;;;;;4.72;3.65;;;14.90;99.90;;;;;;5072248;28;20379;-66
2022/08/08 05:53:55;;;;;;;5.72;3.58;;;15.10;99.90;;;;;;5072541;28;20036;-66
2022/08/08 05:56:22;;;;;;;6.38;3.38;;;15.10;99.90;;;;;;5072551;28;20037;-66
2022/08/08 05:58:59;;;;;;;6.80;3.33;;;15.60;99.90;;;;;;5067564;28;20047;-66
2022/08/08 06:01:26;;;;;;;4.80;3.70;;;15.50;99.90;;;;;;5061569;28;20098;-66
2022/08/08 06:03:54;;;;;;;6.22;3.85;;;15.40;99.90;;;;;;5072346;28;20406;-66
2022/08/08 06:06:24;;;;;;;7.10;4.10;;;15.40;99.90;;;;;;5072143;28;20486;-66
2022/08/08 06:08:51;;;;;;;6.55;3.25;;;15.40;99.90;;;;;;5049629;28;20049;-65
2022/08/08 06:11:18;;;;;;;6.90;3.97;;;15.30;99.90;;;;;;5054256;28;20048;-66
2022/08/08 06:13:45;;;;;;;10.07;4.63;;;15.30;99.90;;;;;;5034386;28;20041;-66
2022/08/08 06:16:12;;;;;;;14.40;7.72;;;15.20;99.90;;;;;;5031375;28;20037;-65
2022/08/08 06:18:39;;;;;;;11.30;8.13;;;15.20;99.90;;;;;;5031139;28;20044;-66
2022/08/08 06:21:07;;;;;;;14.05;8.10;;;15.30;99.90;;;;;;5038503;28;20033;-66
2022/08/08 06:23:33;;;;;;;14.57;8.50;;;15.20;99.90;;;;;;5045214;28;20055;-65
2022/08/08 06:26:06;;;;;;;13.63;8.40;;;15.30;99.90;;;;;;5050049;28;20040;-65
2022/08/08 06:28:34;;;;;;;10.88;8.00;;;15.30;99.90;;;;;;5049869;28;20143;-66
2022/08/08 06:31:02;;;;;;;13.65;9.13;;;15.10;99.90;;;;;;5051441;28;20045;-66
2022/08/08 06:34:07;;;;;;;13.07;8.68;;;15.40;99.90;;;;;;5052220;28;20083;-66
2022/08/08 06:36:41;;;;;;;14.65;8.63;;;15.50;99.90;;;;;;5009907;28;20049;-66
2022/08/08 06:39:08;;;;;;;20.63;8.95;;;15.80;99.90;;;;;;5049615;28;20041;-65
2022/08/08 06:41:40;;;;;;;16.85;9.77;;;15.80;99.90;;;;;;5050256;28;20036;-65
2022/08/08 06:44:09;;;;;;;11.48;7.50;;;16.40;99.90;;;;;;5050828;28;20123;-65
2022/08/08 06:46:35;;;;;;;11.68;7.72;;;17.20;99.90;;;;;;5052461;28;20045;-65
2022/08/08 06:49:00;;;;;;;11.45;7.70;;;17.90;99.90;;;;;;5054265;28;20047;-66
2022/08/08 06:51:27;;;;;;;21.58;8.40;;;17.90;99.90;;;;;;5053833;28;20057;-65
2022/08/08 06:53:54;;;;;;;18.80;8.13;;;17.90;99.90;;;;;;5055229;28;20063;-66
2022/08/08 06:56:22;;;;;;;15.43;7.32;;;17.70;99.90;;;;;;5055466;28;20028;-66
2022/08/08 06:58:47;;;;;;;13.00;8.30;;;17.70;99.90;;;;;;5053843;28;20124;-65
2022/08/08 07:01:15;;;;;;;18.27;9.00;;;17.30;99.90;;;;;;5063432;28;20115;-65
2022/08/08 07:03:52;;;;;;;16.83;9.38;;;17.30;99.90;;;;;;5074511;28;20047;-65
2022/08/08 07:06:22;;;;;;;18.63;8.32;;;17.00;99.90;;;;;;5073895;28;20083;-65
2022/08/08 07:08:53;;;;;;;15.63;7.85;;;17.00;99.90;;;;;;5074270;28;20048;-65
2022/08/08 07:11:21;;;;;;;15.85;7.32;;;17.00;99.90;;;;;;5073906;28;20036;-65
2022/08/08 07:13:53;;;;;;;9.05;6.45;;;16.90;99.90;;;;;;5074230;28;20040;-65
2022/08/08 07:16:27;;;;;;;11.55;6.85;;;17.10;99.90;;;;;;5073846;28;20040;-65
2022/08/08 07:19:23;;;;;;;12.32;7.50;;;17.00;99.90;;;;;;5074739;28;20041;-65
2022/08/08 07:22:11;;;;;;;13.82;8.15;;;17.10;99.90;;;;;;5063743;28;20045;-65
2022/08/08 07:24:51;;;;;;;12.95;6.90;;;17.10;99.90;;;;;;5067934;28;20036;-65
2022/08/08 07:27:24;;;;;;;10.60;6.60;;;16.90;99.90;;;;;;5068998;28;20044;-65
2022/08/08 07:29:50;;;;;;;11.50;5.80;;;17.10;99.90;;;;;;5047826;28;20036;-66
2022/08/08 07:32:17;;;;;;;11.00;6.40;;;17.40;99.90;;;;;;5051872;28;20030;-66
2022/08/08 07:34:44;;;;;;;8.65;4.55;;;17.30;99.90;;;;;;5054407;28;20044;-66
2022/08/08 07:37:12;;;;;;;9.45;3.95;;;17.60;99.90;;;;;;5054181;28;20044;-66
2022/08/08 07:39:41;;;;;;;6.97;4.07;;;17.60;99.90;;;;;;5052952;28;20128;-66
2022/08/08 07:42:12;;;;;;;5.40;3.25;;;17.60;99.90;;;;;;5051081;28;20044;-66
2022/08/08 07:44:40;;;;;;;8.40;3.63;;;17.80;99.90;;;;;;5053461;28;20123;-66
2022/08/08 07:47:06;;;;;;;6.75;3.58;;;17.90;99.90;;;;;;5054625;28;20432;-66
2022/08/08 07:49:31;;;;;;;4.68;2.67;;;17.90;99.90;;;;;;5054515;28;20084;-66
2022/08/08 07:51:59;;;;;;;5.72;2.85;;;17.90;99.90;;;;;;5054070;28;20098;-66
2022/08/08 07:54:50;;;;;;;6.00;2.47;;;17.90;99.90;;;;;;5054113;28;20033;-66
2022/08/08 07:57:29;;;;;;;5.53;2.72;;;17.80;99.90;;;;;;5052202;28;20040;-66
2022/08/08 08:00:01;;;;;;;1.95;1.33;;;18.00;99.90;;;;;;5052773;28;20049;-66
2022/08/08 08:02:35;;;;;;;5.03;1.95;;;18.20;99.90;;;;;;5068149;28;20088;-66
2022/08/08 08:05:04;;;;;;;5.03;1.88;;;18.20;99.90;;;;;;5067075;28;20098;-66
2022/08/08 08:07:33;;;;;;;14.93;4.45;;;18.60;99.90;;;;;;5074379;28;20383;-66
2022/08/08 08:10:02;;;;;;;4.05;1.38;;;18.40;99.90;;;;;;5061405;28;20052;-66
2022/08/08 08:12:28;;;;;;;5.35;1.40;;;18.60;99.90;;;;;;5063582;28;20036;-67
2022/08/08 08:15:02;;;;;;;3.55;1.55;;;18.60;99.90;;;;;;5055697;28;20037;-67
2022/08/08 08:17:28;;;;;;;3.58;1.20;;;18.40;99.90;;;;;;5049339;28;20054;-67
2022/08/08 08:19:59;;;;;;;2.80;1.50;;;18.80;99.90;;;;;;5045786;28;20041;-67
2022/08/08 08:22:24;;;;;;;3.38;1.60;;;19.00;99.90;;;;;;5048353;28;20111;-67
2022/08/08 08:24:50;;;;;;;4.53;1.55;;;19.20;99.90;;;;;;5052614;28;20124;-67
2022/08/08 08:27:15;;;;;;;2.50;1.30;;;19.10;99.90;;;;;;5052522;28;20065;-67
2022/08/08 08:29:41;;;;;;;5.13;1.30;;;19.00;99.90;;;;;;5053259;28;20048;-67
2022/08/08 08:32:07;;;;;;;6.63;1.45;;;19.10;99.90;;;;;;5053843;28;20712;-67
2022/08/08 08:34:34;;;;;;;3.63;1.10;;;19.10;99.90;;;;;;5053815;28;20116;-67
2022/08/08 08:37:01;;;;;;;4.10;1.70;;;19.00;99.90;;;;;;5053735;28;20067;-67
2022/08/08 08:39:27;;;;;;;2.67;1.20;;;19.30;99.90;;;;;;5052009;28;20076;-67
2022/08/08 08:41:53;;;;;;;4.20;1.48;;;19.50;99.90;;;;;;5051879;28;20079;-67
2022/08/08 08:44:19;;;;;;;4.60;1.20;;;19.70;99.90;;;;;;5053199;28;20442;-67
2022/08/08 08:46:46;;;;;;;4.50;1.23;;;19.60;99.90;;;;;;5053078;28;20151;-67
2022/08/08 08:49:12;;;;;;;3.92;1.30;;;19.50;99.90;;;;;;5053550;28;20051;-67
2022/08/08 08:51:41;;;;;;;4.50;1.08;;;19.50;99.90;;;;;;5051773;28;20049;-67
2022/08/08 08:54:08;;;;;;;4.70;1.77;;;19.70;99.90;;;;;;5053258;28;20040;-67
2022/08/08 08:56:37;;;;;;;5.32;1.40;;;19.80;99.90;;;;;;5053083;28;20111;-67
2022/08/08 08:59:04;;;;;;;3.15;1.20;;;19.90;99.90;;;;;;5051275;28;20522;-67
2022/08/08 09:01:40;;;;;;;4.50;1.50;;;20.20;99.90;;;;;;5051776;28;20080;-67
2022/08/08 09:04:13;;;;;;;5.30;1.55;;;20.10;99.90;;;;;;5055191;28;20076;-67
2022/08/08 09:06:41;;;;;;;4.43;1.15;;;20.10;99.90;;;;;;5043485;28;20043;-66
2022/08/08 09:09:18;;;;;;;2.72;0.88;;;19.90;99.90;;;;;;5051952;28;20127;-66
2022/08/08 09:11:45;;;;;;;3.15;0.95;;;20.00;99.90;;;;;;5051742;28;20379;-67
2022/08/08 09:14:13;;;;;;;3.33;1.13;;;20.00;99.90;;;;;;5051624;28;20098;-67
2022/08/08 09:16:39;;;;;;;1.40;0.63;;;20.10;99.90;;;;;;5052739;28;20483;-67
2022/08/08 09:19:04;;;;;;;1.80;0.75;;;19.90;99.90;;;;;;5052664;28;20123;-67
2022/08/08 09:21:30;;;;;;;4.68;0.82;;;20.00;99.90;;;;;;5052674;28;20068;-67
2022/08/08 09:23:57;;;;;;;2.35;0.82;;;20.10;99.90;;;;;;5052923;28;20029;-67
2022/08/08 09:26:28;;;;;;;2.15;0.63;;;20.30;99.90;;;;;;5046880;28;20037;-66
2022/08/08 09:28:59;;;;;;;2.45;0.50;;;20.40;99.90;;;;;;5049976;28;20092;-66
2022/08/08 09:31:39;;;;;;;1.73;0.60;;;20.30;99.90;;;;;;5041422;28;20056;-66
2022/08/08 09:34:07;;;;;;;3.58;0.70;;;20.30;99.90;;;;;;5048664;28;20174;-66
2022/08/08 09:36:35;;;;;;;3.22;1.00;;;20.30;99.90;;;;;;5032670;28;20037;-66
2022/08/08 09:39:03;;;;;;;2.33;0.60;;;20.20;99.90;;;;;;5032363;28;20200;-66
2022/08/08 09:41:37;;;;;;;4.05;0.82;;;20.20;99.90;;;;;;5032599;28;20087;-66
2022/08/08 09:44:18;;;;;;;3.85;0.90;;;20.30;99.90;;;;;;5031034;28;20059;-65
2022/08/08 09:46:47;;;;;;;1.88;0.73;;;19.90;99.90;;;;;;5033418;28;20061;-65
2022/08/08 09:49:17;;;;;;;1.83;0.60;;;20.00;99.90;;;;;;5033650;28;20094;-66
2022/08/08 09:51:46;;;;;;;3.38;1.02;;;20.30;99.90;;;;;;5048250;28;20049;-66
2022/08/08 09:54:14;;;;;;;3.60;0.63;;;20.60;99.90;;;;;;5030759;28;20052;-67
2022/08/08 09:56:42;;;;;;;2.33;1.08;;;20.60;99.90;;;;;;5047246;28;20049;-66
2022/08/08 09:59:12;;;;;;;2.92;1.00;;;20.60;99.90;;;;;;5055384;28;20413;-66
2022/08/08 10:01:38;;;;;;;3.65;0.70;;;21.10;99.90;;;;;;5069496;28;20059;-67
2022/08/08 10:04:07;;;;;;;3.83;0.70;;;21.20;99.90;;;;;;5056467;28;20271;-66
2022/08/08 10:06:42;;;;;;;5.00;1.15;;;21.10;99.90;;;;;;5059699;28;20167;-66
2022/08/08 10:09:07;;;;;;;2.85;0.70;;;21.10;99.90;;;;;;5065500;28;20051;-66
2022/08/08 10:11:35;;;;;;;4.43;0.85;;;21.10;99.90;;;;;;5044550;28;20431;-66
2022/08/08 10:14:03;;;;;;;3.83;0.80;;;21.40;99.90;;;;;;5047318;28;20056;-66
2022/08/08 10:16:37;;;;;;;2.50;0.73;;;21.30;99.90;;;;;;5050590;28;20039;-66
2022/08/08 10:19:05;;;;;;;3.80;1.17;;;21.40;99.90;;;;;;5049120;28;20037;-66
2022/08/08 10:21:34;;;;;;;1.85;0.55;;;21.30;99.90;;;;;;5053797;28;20448;-67
2022/08/08 10:24:08;;;;;;;2.60;0.88;;;21.50;99.90;;;;;;5053842;28;20077;-66
2022/08/08 10:26:48;;;;;;;2.35;0.43;;;21.30;99.90;;;;;;5054207;28;20029;-66
2022/08/08 10:29:14;;;;;;;1.70;0.45;;;21.40;99.90;;;;;;5053399;28;20045;-67
2022/08/08 10:34:27;;;;;;;3.20;0.80;;;21.10;99.90;;;;;;5053936;28;20053;-67
2022/08/08 10:36:55;;;;;;;2.22;0.60;;;21.30;99.90;;;;;;5053004;28;20059;-66
2022/08/08 10:39:23;;;;;;;3.80;1.55;;;21.40;99.90;;;;;;5054270;28;20056;-67
2022/08/08 10:42:02;;;;;;;1.52;0.38;;;21.30;99.90;;;;;;5053072;28;20045;-67
2022/08/08 10:44:39;;;;;;;1.58;0.57;;;21.30;99.90;;;;;;5053979;28;20049;-66
2022/08/08 10:47:18;;;;;;;2.78;0.70;;;21.30;99.90;;;;;;5052860;28;20041;-66
2022/08/08 10:49:53;;;;;;;3.40;0.65;;;21.30;99.90;;;;;;5054486;28;20048;-66
2022/08/08 10:52:30;;;;;;;1.83;0.43;;;21.10;99.90;;;;;;5042943;28;20083;-67
2022/08/08 10:54:58;;;;;;;5.10;0.60;;;21.10;99.90;;;;;;5052447;28;20060;-66
2022/08/08 10:57:23;;;;;;;2.35;0.90;;;21.20;99.90;;;;;;5053656;28;20120;-66
2022/08/08 10:59:57;;;;;;;3.60;0.65;;;21.00;99.90;;;;;;5053635;28;20127;-65
2022/08/08 11:02:24;;;;;;;4.75;0.60;;;21.20;99.90;;;;;;5072850;28;20045;-65
2022/08/08 11:04:50;;;;;;;4.22;0.80;;;21.10;99.90;;;;;;5075434;28;20072;-65
2022/08/08 11:07:33;;;;;;;5.82;0.80;;;21.10;99.90;;;;;;5076411;28;20406;-67
2022/08/08 11:10:06;;;;;;;3.97;0.82;;;20.90;99.90;;;;;;5067740;28;20050;-66
2022/08/08 11:12:34;;;;;;;4.43;0.40;;;21.30;99.90;;;;;;5053190;28;20045;-67
2022/08/08 11:15:00;;;;;;;2.53;0.60;;;21.20;99.90;;;;;;5056451;28;20036;-66
2022/08/08 11:17:31;;;;;;;2.63;0.60;;;21.10;99.90;;;;;;5051400;28;20044;-67
2022/08/08 11:19:58;;;;;;;3.28;0.98;;;21.00;99.90;;;;;;5041199;28;20045;-66
2022/08/08 11:22:26;;;;;;;1.88;0.50;;;21.00;99.90;;;;;;5055437;28;20588;-66
2022/08/08 11:24:59;;;;;;;1.73;0.45;;;20.90;99.90;;;;;;5041910;28;20041;-66
2022/08/08 11:27:32;;;;;;;2.65;0.40;;;21.10;99.90;;;;;;5054295;28;20025;-66
2022/08/08 11:29:59;;;;;;;3.92;0.77;;;21.10;99.90;;;;;;5043217;28;20040;-66
2022/08/08 11:32:27;;;;;;;2.13;0.68;;;20.80;99.90;;;;;;5051900;28;20094;-66
2022/08/08 11:34:56;;;;;;;3.92;1.08;;;21.20;99.90;;;;;;5054677;28;20112;-67
2022/08/08 11:37:24;;;;;;;2.80;0.77;;;21.10;99.90;;;;;;5054744;28;20052;-66
2022/08/08 11:39:50;;;;;;;3.58;0.80;;;20.90;99.90;;;;;;5054332;28;20083;-66
2022/08/08 11:42:18;;;;;;;4.40;0.90;;;21.20;99.90;;;;;;5053035;28;20041;-66
2022/08/08 11:44:44;;;;;;;4.07;0.70;;;21.00;99.90;;;;;;5054655;28;20033;-66
2022/08/08 11:47:11;;;;;;;4.70;0.80;;;22.50;99.90;;;;;;5053018;28;20517;-66
2022/08/08 11:49:38;;;;;;;5.07;0.70;;;21.20;99.90;;;;;;5054158;28;20047;-67
2022/08/08 11:52:05;;;;;;;4.82;0.63;;;22.20;99.90;;;;;;5041383;28;20041;-66
2022/08/08 11:54:35;;;;;;;3.13;0.88;;;21.10;99.90;;;;;;5053464;28;20101;-66
2022/08/08 11:57:22;;;;;;;1.23;0.57;;;21.20;99.90;;;;;;5053472;28;20037;-66
2022/08/08 11:59:59;;;;;;;4.20;0.95;;;21.20;99.90;;;;;;5053848;28;20106;-66
2022/08/08 12:02:27;;;;;;;5.43;0.73;;;21.10;99.90;;;;;;5073636;28;20039;-66
2022/08/08 12:05:05;;;;;;;5.50;0.85;;;20.90;99.90;;;;;;5073112;28;20043;-67
2022/08/08 12:07:42;;;;;;;2.47;0.57;;;21.30;99.90;;;;;;5068946;28;20487;-67
2022/08/08 12:10:12;;;;;;;4.07;0.60;;;20.90;99.90;;;;;;5054151;28;20467;-66
2022/08/08 12:12:44;;;;;;;2.65;0.90;;;21.20;99.90;;;;;;5072362;28;20040;-66
2022/08/08 12:15:10;;;;;;;2.80;0.77;;;21.00;99.90;;;;;;5062485;28;20036;-66
2022/08/08 12:17:37;;;;;;;1.90;0.60;;;21.00;99.90;;;;;;5041727;28;20037;-67
2022/08/08 12:20:05;;;;;;;3.45;0.70;;;21.00;99.90;;;;;;5053540;28;20041;-67
2022/08/08 12:22:31;;;;;;;3.58;0.77;;;21.40;99.90;;;;;;5053281;28;20043;-66
2022/08/08 12:24:58;;;;;;;3.65;0.73;;;21.20;99.90;;;;;;5035847;28;20068;-67
2022/08/08 12:27:24;;;;;;;3.88;0.90;;;21.50;99.90;;;;;;5034998;28;20080;-66
2022/08/08 12:29:55;;;;;;;3.33;0.95;;;21.50;99.90;;;;;;5034057;28;20434;-66
2022/08/08 12:32:20;;;;;;;2.47;0.70;;;21.70;99.90;;;;;;5031845;28;20407;-66
2022/08/08 12:34:56;;;;;;;2.10;0.85;;;21.80;99.90;;;;;;5047080;28;20140;-66
2022/08/08 12:37:30;;;;;;;11.27;1.20;;;21.80;99.90;;;;;;5035871;28;20076;-66
2022/08/08 12:40:20;;;;;;;2.00;0.77;;;22.00;99.90;;;;;;5029936;28;20052;-66
2022/08/08 12:42:47;;;;;;;1.60;0.52;;;22.00;99.90;;;;;;5028710;28;20121;-67
2022/08/08 12:45:13;;;;;;;3.17;0.73;;;21.70;99.90;;;;;;5030257;28;20080;-66
2022/08/08 12:47:39;;;;;;;6.38;0.50;;;21.80;99.90;;;;;;5034950;28;20514;-66
2022/08/08 12:50:06;;;;;;;3.63;0.70;;;21.60;99.90;;;;;;5029738;28;20051;-66
2022/08/08 12:52:38;;;;;;;3.10;0.60;;;22.00;99.90;;;;;;5028825;28;20133;-66
2022/08/08 12:55:11;;;;;;;3.35;0.60;;;21.80;99.90;;;;;;5030288;28;20454;-66
2022/08/08 12:57:37;;;;;;;3.10;0.50;;;21.80;99.90;;;;;;5028602;28;20369;-67
2022/08/08 13:00:05;;;;;;;2.80;0.50;;;21.80;99.90;;;;;;5043432;28;20079;-66
2022/08/08 13:02:33;;;;;;;2.22;0.60;;;21.80;99.90;;;;;;5035193;28;20051;-66
2022/08/08 13:05:01;;;;;;;2.50;0.50;;;21.90;99.90;;;;;;5054372;28;20046;-66
2022/08/08 13:07:37;;;;;;;1.77;0.57;;;21.90;99.90;;;;;;5035574;28;20033;-66
2022/08/08 13:10:07;;;;;;;3.90;0.65;;;21.90;99.90;;;;;;5048284;28;20094;-66
2022/08/08 13:12:41;;;;;;;4.80;0.60;;;22.00;99.90;;;;;;5047445;28;20060;-67
2022/08/08 13:15:15;;;;;;;2.63;0.98;;;22.10;99.90;;;;;;5049323;28;20037;-66
2022/08/08 13:17:41;;;;;;;4.85;0.60;;;22.10;99.90;;;;;;5049263;28;20047;-66
2022/08/08 13:20:15;;;;;;;2.88;0.65;;;22.10;99.90;;;;;;5049358;28;20053;-68
2022/08/08 13:22:44;;;;;;;4.80;0.63;;;22.00;99.90;;;;;;5049239;28;20048;-66
2022/08/08 13:25:20;;;;;;;1.98;0.47;;;22.30;99.90;;;;;;5049524;28;20051;-66
2022/08/08 13:27:54;;;;;;;4.03;0.90;;;22.10;99.90;;;;;;5047394;28;20033;-66
2022/08/08 13:30:24;;;;;;;6.40;0.85;;;22.20;99.90;;;;;;5049227;28;20052;-66
2022/08/08 13:32:56;;;;;;;3.15;0.75;;;21.90;99.90;;;;;;5042695;28;20518;-66